Time;durP1;ratioP1;P1;durP2;ratioP2;P2;SDS_P1;SDS_P2;PMS_P1;PMS_P2;Temp;Humidity;BMP_temperature;BMP_pressure;BME280_temperature;BME280_humidity;BME280_pressure;Samples;Min_cycle;Max_cycle;Signal;HPM_P1;HPM_P2
2023/08/15 00:02:05;;;;;;;14.05;12.10;;;17.80;99.90;;;;;;4974089;28;20576;-61
2023/08/15 00:04:31;;;;;;;13.07;9.93;;;18.30;99.90;;;;;;4969798;28;20142;-61
2023/08/15 00:06:58;;;;;;;12.23;9.80;;;18.10;99.90;;;;;;4962140;28;20114;-61
2023/08/15 00:09:23;;;;;;;13.38;10.45;;;17.90;99.90;;;;;;4969930;28;20382;-62
2023/08/15 00:11:49;;;;;;;12.68;9.90;;;17.90;99.90;;;;;;4965652;28;20126;-62
2023/08/15 00:14:15;;;;;;;12.27;9.05;;;18.00;99.90;;;;;;4965325;28;20492;-62
2023/08/15 00:16:42;;;;;;;12.07;9.05;;;18.40;99.90;;;;;;4964309;28;20051;-62
2023/08/15 00:19:08;;;;;;;12.27;9.30;;;18.00;99.90;;;;;;4961529;28;20043;-62
2023/08/15 00:21:33;;;;;;;12.88;9.55;;;18.00;99.90;;;;;;4970802;28;20050;-61
2023/08/15 00:23:59;;;;;;;11.93;9.68;;;18.20;99.90;;;;;;4967698;28;20531;-61
2023/08/15 00:26:25;;;;;;;12.52;10.18;;;19.00;99.90;;;;;;4963209;28;20464;-61
2023/08/15 00:28:50;;;;;;;12.85;8.85;;;17.90;99.90;;;;;;4972408;28;20035;-62
2023/08/15 00:31:16;;;;;;;12.20;9.30;;;18.50;99.90;;;;;;4966698;28;20489;-62
2023/08/15 00:33:42;;;;;;;13.13;9.30;;;18.00;99.90;;;;;;4967238;28;20492;-62
2023/08/15 00:36:08;;;;;;;13.35;8.75;;;17.90;99.90;;;;;;4958690;28;20031;-62
2023/08/15 00:38:33;;;;;;;11.18;8.75;;;18.00;99.90;;;;;;4968188;28;20135;-62
2023/08/15 00:40:59;;;;;;;12.68;9.60;;;17.90;99.90;;;;;;4963464;28;20032;-62
2023/08/15 00:43:24;;;;;;;11.52;8.88;;;18.10;99.90;;;;;;4961487;28;20401;-62
2023/08/15 00:45:50;;;;;;;13.73;8.75;;;17.80;99.90;;;;;;4964497;28;20070;-62
2023/08/15 00:48:17;;;;;;;13.63;9.52;;;18.00;99.90;;;;;;4958903;28;20520;-62
2023/08/15 00:50:45;;;;;;;14.27;9.25;;;18.40;99.90;;;;;;4965936;28;20061;-62
2023/08/15 00:53:11;;;;;;;12.98;8.50;;;;;;;;;;4969108;28;20089;-62
2023/08/15 00:55:38;;;;;;;11.48;9.43;;;18.70;99.90;;;;;;4968944;28;20053;-62
2023/08/15 00:58:04;;;;;;;11.75;9.05;;;17.90;99.90;;;;;;4964850;28;20552;-62
2023/08/15 01:00:30;;;;;;;15.07;10.30;;;17.90;99.90;;;;;;4971109;28;20046;-62
2023/08/15 01:02:56;;;;;;;14.18;9.95;;;17.90;99.90;;;;;;4967441;28;20397;-62
2023/08/15 01:05:22;;;;;;;13.27;8.88;;;17.90;99.90;;;;;;4961204;28;20039;-62
2023/08/15 01:07:48;;;;;;;12.25;9.82;;;18.00;99.90;;;;;;4965089;28;20506;-62
2023/08/15 01:10:14;;;;;;;13.55;10.23;;;18.10;99.90;;;;;;4960407;28;20176;-62
2023/08/15 01:12:47;;;;;;;13.40;9.07;;;18.80;99.90;;;;;;4964084;28;20129;-62
2023/08/15 01:15:18;;;;;;;12.25;8.88;;;18.40;99.90;;;;;;4968111;28;20112;-62
2023/08/15 01:18:02;;;;;;;14.63;9.25;;;;;;;;;;4966920;28;20043;-62
2023/08/15 01:20:31;;;;;;;13.43;8.93;;;18.50;99.90;;;;;;4964087;28;20050;-62
2023/08/15 01:23:01;;;;;;;10.25;8.90;;;18.70;99.90;;;;;;4970562;28;20090;-62
2023/08/15 01:25:27;;;;;;;12.77;9.32;;;18.30;99.90;;;;;;4967205;28;20062;-62
2023/08/15 01:27:53;;;;;;;11.82;9.45;;;18.60;86.60;;;;;;4971409;28;20085;-62
2023/08/15 01:30:22;;;;;;;11.50;8.52;;;;;;;;;;4963606;28;20645;-63
2023/08/15 01:33:02;;;;;;;15.95;10.00;;;18.80;1.00;;;;;;4958684;28;20217;-62
2023/08/15 01:35:33;;;;;;;12.63;9.65;;;;;;;;;;4965914;28;20112;-62
2023/08/15 01:38:02;;;;;;;14.90;10.27;;;;;;;;;;4959415;28;20545;-62
2023/08/15 01:40:32;;;;;;;13.07;9.68;;;18.70;1.00;;;;;;4962036;28;20579;-62
2023/08/15 01:42:59;;;;;;;14.68;9.77;;;;;;;;;;4956679;28;20043;-62
2023/08/15 01:45:25;;;;;;;15.80;10.07;;;18.80;1.00;;;;;;4967532;28;20043;-62
2023/08/15 01:47:51;;;;;;;12.52;9.35;;;18.80;1.00;;;;;;4965492;28;20453;-62
2023/08/15 01:50:17;;;;;;;15.88;9.32;;;18.50;1.00;;;;;;4959552;28;20086;-63
2023/08/15 01:52:42;;;;;;;14.55;9.20;;;18.10;1.00;;;;;;4960108;28;20493;-63
2023/08/15 01:55:09;;;;;;;15.43;9.55;;;18.70;1.00;;;;;;4962454;28;20374;-62
2023/08/15 01:57:34;;;;;;;15.45;10.48;;;18.70;1.00;;;;;;4964923;28;20035;-62
2023/08/15 02:00:00;;;;;;;14.32;9.77;;;18.60;1.00;;;;;;4964263;28;20046;-62
2023/08/15 02:02:26;;;;;;;14.00;9.43;;;;;;;;;;4958007;28;20031;-63
2023/08/15 02:04:51;;;;;;;18.58;10.20;;;19.20;1.00;;;;;;4977696;28;20057;-62
2023/08/15 02:07:17;;;;;;;13.02;9.05;;;18.70;1.00;;;;;;4968114;28;20057;-62
2023/08/15 02:09:43;;;;;;;15.25;9.63;;;18.60;1.00;;;;;;4959736;28;20043;-62
2023/08/15 02:12:08;;;;;;;13.38;9.77;;;18.30;1.00;;;;;;4967836;28;20034;-62
2023/08/15 02:14:34;;;;;;;14.35;9.77;;;19.30;1.00;;;;;;4962315;28;20039;-62
2023/08/15 02:16:59;;;;;;;12.57;8.43;;;18.60;1.00;;;;;;4963794;28;20419;-62
2023/08/15 02:19:25;;;;;;;12.43;9.52;;;18.40;1.00;;;;;;4967324;28;20046;-62
2023/08/15 02:21:51;;;;;;;16.70;9.75;;;17.90;1.00;;;;;;4966365;28;20108;-62
2023/08/15 02:24:16;;;;;;;15.50;9.82;;;18.30;1.00;;;;;;4962016;28;20035;-62
2023/08/15 02:26:42;;;;;;;18.67;9.57;;;18.00;12.00;;;;;;4958141;28;20493;-62
2023/08/15 02:29:08;;;;;;;13.98;9.18;;;18.70;34.50;;;;;;4964804;28;20038;-62
2023/08/15 02:31:34;;;;;;;13.93;8.90;;;18.40;37.10;;;;;;4969589;28;20085;-62
2023/08/15 02:33:59;;;;;;;14.13;9.13;;;18.00;56.30;;;;;;4963586;28;20040;-63
2023/08/15 02:36:25;;;;;;;13.25;8.48;;;17.80;52.10;;;;;;4967075;28;20078;-61
2023/08/15 02:38:51;;;;;;;13.18;9.25;;;18.60;73.10;;;;;;4965486;28;20139;-61
2023/08/15 02:41:17;;;;;;;15.00;8.85;;;;;;;;;;4968368;28;20077;-61
2023/08/15 02:43:42;;;;;;;14.43;9.45;;;18.90;79.70;;;;;;4956991;28;20579;-61
2023/08/15 02:46:08;;;;;;;14.45;9.02;;;18.40;92.80;;;;;;4962631;28;20038;-61
2023/08/15 02:48:33;;;;;;;15.10;9.40;;;18.70;93.00;;;;;;4969201;28;20173;-61
2023/08/15 02:50:59;;;;;;;15.02;10.25;;;18.40;99.90;;;;;;4962686;28;20832;-61
2023/08/15 02:53:25;;;;;;;17.20;10.65;;;18.60;99.90;;;;;;4969557;28;20043;-62
2023/08/15 02:55:51;;;;;;;13.80;11.32;;;18.50;99.90;;;;;;4964665;28;20038;-62
2023/08/15 02:58:17;;;;;;;17.27;10.77;;;18.20;99.90;;;;;;4964134;28;20043;-61
2023/08/15 03:00:43;;;;;;;17.27;11.23;;;18.60;99.90;;;;;;4957584;28;20042;-62
2023/08/15 03:03:09;;;;;;;13.82;10.32;;;18.40;99.90;;;;;;4961420;28;20117;-62
2023/08/15 03:05:38;;;;;;;15.57;10.93;;;18.50;99.90;;;;;;4959698;28;20078;-62
2023/08/15 03:08:04;;;;;;;14.10;10.45;;;18.70;99.90;;;;;;4962045;28;20125;-62
2023/08/15 03:10:33;;;;;;;15.95;10.13;;;18.70;99.90;;;;;;4959619;28;20058;-63
2023/08/15 03:12:59;;;;;;;14.65;10.60;;;18.40;99.90;;;;;;4965707;28;20053;-61
2023/08/15 03:15:24;;;;;;;15.75;10.23;;;18.90;99.90;;;;;;4970174;28;20042;-61
2023/08/15 03:17:51;;;;;;;16.70;10.57;;;19.50;99.90;;;;;;4965535;28;20047;-61
2023/08/15 03:20:17;;;;;;;15.90;10.27;;;18.40;99.90;;;;;;4968794;28;20445;-61
2023/08/15 03:22:43;;;;;;;16.17;10.85;;;18.30;99.90;;;;;;4968281;28;20073;-61
2023/08/15 03:25:09;;;;;;;15.95;10.75;;;18.70;99.90;;;;;;4960265;28;20075;-61
2023/08/15 03:27:35;;;;;;;17.52;10.27;;;19.20;92.40;;;;;;4964523;28;20496;-61
2023/08/15 03:30:00;;;;;;;14.48;10.05;;;19.60;78.60;;;;;;4965834;28;20045;-61
2023/08/15 03:32:26;;;;;;;17.48;9.48;;;19.30;73.30;;;;;;4966491;28;20042;-61
2023/08/15 03:34:52;;;;;;;13.57;8.45;;;;;;;;;;4965766;28;20042;-61
2023/08/15 03:37:18;;;;;;;11.45;8.52;;;18.90;57.80;;;;;;4957728;28;20058;-61
2023/08/15 03:39:44;;;;;;;13.30;7.78;;;18.90;49.20;;;;;;4964072;28;20046;-61
2023/08/15 03:42:10;;;;;;;15.55;9.23;;;18.60;41.30;;;;;;4957440;28;20126;-62
2023/08/15 03:44:35;;;;;;;14.50;8.52;;;18.90;47.70;;;;;;4963429;28;20030;-62
2023/08/15 03:47:01;;;;;;;14.20;8.55;;;19.40;52.90;;;;;;4957646;28;20070;-62
2023/08/15 03:49:28;;;;;;;15.07;8.65;;;;;;;;;;4952691;28;20420;-61
2023/08/15 03:51:54;;;;;;;12.23;8.57;;;19.50;56.50;;;;;;4964619;28;20047;-62
2023/08/15 03:54:19;;;;;;;12.73;9.05;;;19.10;62.20;;;;;;4960786;28;20377;-61
2023/08/15 03:56:45;;;;;;;22.25;9.38;;;18.10;76.40;;;;;;4954258;28;20073;-62
2023/08/15 03:59:11;;;;;;;13.52;8.38;;;18.80;78.60;;;;;;4962522;28;20521;-62
2023/08/15 04:01:36;;;;;;;11.95;8.40;;;18.60;85.40;;;;;;4963369;28;20046;-62
2023/08/15 04:04:03;;;;;;;14.45;7.65;;;18.10;82.40;;;;;;4960212;28;20122;-62
2023/08/15 04:06:28;;;;;;;12.18;7.25;;;19.00;98.50;;;;;;4968634;28;20043;-62
2023/08/15 04:08:54;;;;;;;14.93;7.50;;;18.10;98.90;;;;;;4966471;28;20094;-62
2023/08/15 04:11:19;;;;;;;14.15;8.05;;;18.60;99.90;;;;;;4963441;28;20034;-62
2023/08/15 04:13:45;;;;;;;16.30;7.82;;;18.60;99.90;;;;;;4963834;28;20054;-62
2023/08/15 04:16:11;;;;;;;14.55;7.15;;;18.90;99.90;;;;;;4953393;28;20065;-62
2023/08/15 04:18:36;;;;;;;10.38;6.90;;;19.10;99.90;;;;;;4965740;28;20122;-62
2023/08/15 04:21:02;;;;;;;12.73;7.18;;;18.20;99.90;;;;;;4963203;28;20039;-62
2023/08/15 04:23:28;;;;;;;11.50;7.20;;;;;;;;;;4961820;28;20266;-62
2023/08/15 04:25:54;;;;;;;13.73;7.25;;;;;;;;;;4967559;28;20090;-63
2023/08/15 04:28:20;;;;;;;12.18;7.15;;;;;;;;;;4964560;28;20459;-62
2023/08/15 04:30:46;;;;;;;13.85;7.43;;;18.30;99.90;;;;;;4960489;28;20046;-61
2023/08/15 04:33:11;;;;;;;13.57;7.68;;;18.90;99.90;;;;;;4969389;28;20047;-62
2023/08/15 04:35:39;;;;;;;13.65;6.72;;;18.50;99.90;;;;;;4971529;28;20413;-61
2023/08/15 04:38:05;;;;;;;16.80;7.28;;;18.10;99.90;;;;;;4967529;28;20039;-61
2023/08/15 04:40:30;;;;;;;13.05;6.35;;;18.80;99.90;;;;;;4969360;28;20511;-61
2023/08/15 04:42:56;;;;;;;14.02;6.70;;;18.20;99.90;;;;;;4969952;28;20035;-62
2023/08/15 04:45:22;;;;;;;17.00;6.97;;;18.30;99.90;;;;;;4970317;28;20046;-61
2023/08/15 04:47:47;;;;;;;14.70;5.95;;;18.40;99.90;;;;;;4971405;28;20049;-62
2023/08/15 04:50:13;;;;;;;12.07;5.80;;;18.40;99.90;;;;;;4963239;28;20091;-61
2023/08/15 04:52:39;;;;;;;14.10;6.07;;;18.40;99.90;;;;;;4969301;28;20072;-62
2023/08/15 04:55:05;;;;;;;12.30;5.68;;;18.00;99.90;;;;;;4958683;28;20042;-61
2023/08/15 04:57:30;;;;;;;10.45;5.32;;;18.60;99.90;;;;;;4963019;28;20217;-62
2023/08/15 04:59:56;;;;;;;16.35;5.78;;;18.10;99.90;;;;;;4957967;28;20121;-61
2023/08/15 05:02:22;;;;;;;12.57;5.72;;;18.30;99.90;;;;;;4966248;28;20356;-61
2023/08/15 05:04:47;;;;;;;14.55;5.18;;;18.50;99.90;;;;;;4969828;28;20039;-61
2023/08/15 05:07:13;;;;;;;13.02;5.65;;;18.40;99.90;;;;;;4966197;28;20039;-61
2023/08/15 05:09:39;;;;;;;12.50;5.25;;;;;;;;;;4969079;28;20440;-61
2023/08/15 05:12:05;;;;;;;10.98;5.70;;;18.40;99.90;;;;;;4967185;28;20413;-61
2023/08/15 05:14:31;;;;;;;13.00;5.57;;;19.00;99.90;;;;;;4969673;28;20023;-61
2023/08/15 05:16:57;;;;;;;14.73;5.43;;;;;;;;;;4967385;28;20491;-61
2023/08/15 05:19:23;;;;;;;12.48;6.45;;;18.00;99.90;;;;;;4961494;28;20035;-61
2023/08/15 05:21:48;;;;;;;12.93;5.90;;;18.50;99.90;;;;;;4962325;28;20541;-61
2023/08/15 05:24:14;;;;;;;12.05;5.10;;;18.60;99.90;;;;;;4963657;28;20478;-61
2023/08/15 05:26:40;;;;;;;12.63;5.05;;;18.00;99.90;;;;;;4968294;28;20412;-61
2023/08/15 05:29:05;;;;;;;17.08;6.13;;;18.50;99.90;;;;;;4966535;28;20564;-62
2023/08/15 05:31:31;;;;;;;13.02;5.60;;;18.20;99.90;;;;;;4978835;28;20046;-61
2023/08/15 05:33:57;;;;;;;15.23;5.97;;;;;;;;;;4984847;28;20132;-62
2023/08/15 05:36:23;;;;;;;15.43;5.78;;;18.20;99.90;;;;;;4960239;28;20463;-61
2023/08/15 05:38:48;;;;;;;13.98;4.63;;;18.50;99.90;;;;;;4968256;28;20155;-62
2023/08/15 05:41:14;;;;;;;17.60;6.53;;;18.50;99.90;;;;;;4951261;28;20125;-62
2023/08/15 05:43:40;;;;;;;16.60;5.18;;;18.50;99.90;;;;;;4962417;28;20053;-61
2023/08/15 05:46:05;;;;;;;14.40;5.45;;;18.70;99.90;;;;;;4968677;28;20370;-61
2023/08/15 05:48:31;;;;;;;14.20;5.07;;;18.70;99.90;;;;;;4967494;28;20037;-61
2023/08/15 05:50:57;;;;;;;10.65;4.43;;;;;;;;;;4968309;28;20488;-61
2023/08/15 05:53:23;;;;;;;13.02;5.32;;;;;;;;;;4969743;28;20208;-62
2023/08/15 05:55:49;;;;;;;12.65;5.15;;;18.50;99.90;;;;;;4966414;28;20520;-62
2023/08/15 05:58:15;;;;;;;13.50;5.22;;;18.70;99.90;;;;;;4966733;28;20035;-61
2023/08/15 06:00:41;;;;;;;23.38;6.57;;;17.90;99.90;;;;;;4964445;28;20178;-61
2023/08/15 06:03:06;;;;;;;14.23;5.60;;;18.40;99.90;;;;;;4950704;28;20043;-62
2023/08/15 06:05:32;;;;;;;15.77;5.50;;;18.50;99.90;;;;;;4967370;28;20050;-62
2023/08/15 06:07:59;;;;;;;14.38;5.32;;;;;;;;;;4966064;28;20043;-61
2023/08/15 06:10:24;;;;;;;12.60;5.22;;;18.50;99.90;;;;;;4965902;28;20053;-61
2023/08/15 06:12:50;;;;;;;13.30;4.85;;;18.50;99.90;;;;;;4962121;28;20423;-61
2023/08/15 06:15:16;;;;;;;13.02;5.35;;;18.10;99.90;;;;;;4965758;28;20042;-61
2023/08/15 06:17:42;;;;;;;11.55;5.45;;;18.60;99.90;;;;;;4962400;28;20042;-61
2023/08/15 06:20:10;;;;;;;11.55;5.03;;;18.50;99.90;;;;;;4961727;28;20078;-61
2023/08/15 06:22:36;;;;;;;13.27;5.40;;;18.30;1.00;;;;;;4964994;28;20508;-61
2023/08/15 06:25:02;;;;;;;17.58;5.32;;;18.60;1.00;;;;;;4962444;28;20066;-61
2023/08/15 06:27:27;;;;;;;11.52;4.70;;;19.20;99.90;;;;;;4956693;28;20121;-61
2023/08/15 06:29:53;;;;;;;12.73;4.80;;;19.00;99.90;;;;;;4964854;28;20117;-61
2023/08/15 06:32:30;;;;;;;12.77;4.60;;;19.00;99.90;;;;;;4958875;28;20468;-61
2023/08/15 06:34:56;;;;;;;15.20;4.53;;;18.40;99.90;;;;;;4967772;28;20047;-61
2023/08/15 06:37:22;;;;;;;14.90;4.93;;;;;;;;;;4960833;28;20047;-61
2023/08/15 06:39:48;;;;;;;11.73;4.32;;;19.50;99.90;;;;;;4957069;28;20058;-61
2023/08/15 06:42:14;;;;;;;13.45;5.03;;;19.10;99.90;;;;;;4962548;28;20039;-61
2023/08/15 06:44:43;;;;;;;15.85;5.22;;;19.10;99.90;;;;;;4962682;28;20245;-61
2023/08/15 06:47:10;;;;;;;13.27;4.78;;;;;;;;;;4958088;28;20039;-61
2023/08/15 06:49:36;;;;;;;13.25;4.25;;;19.60;99.90;;;;;;4963206;28;20046;-62
2023/08/15 06:52:03;;;;;;;11.85;4.50;;;;;;;;;;4980321;28;20051;-61
2023/08/15 06:54:29;;;;;;;16.92;4.78;;;;;;;;;;4957549;28;20053;-61
2023/08/15 06:56:54;;;;;;;11.05;4.40;;;19.50;99.90;;;;;;4961968;28;20047;-62
2023/08/15 06:59:23;;;;;;;11.90;4.30;;;19.70;99.90;;;;;;4963971;28;20559;-61
2023/08/15 07:01:50;;;;;;;14.73;4.45;;;19.60;99.90;;;;;;4961492;28;20043;-61
2023/08/15 07:04:16;;;;;;;12.63;3.70;;;20.20;99.90;;;;;;4962721;28;20122;-61
2023/08/15 07:06:41;;;;;;;12.55;4.47;;;20.00;99.90;;;;;;4967626;28;20039;-62
2023/08/15 07:09:07;;;;;;;12.85;4.00;;;19.90;99.90;;;;;;4959932;28;20053;-62
2023/08/15 07:11:33;;;;;;;9.57;3.53;;;19.70;99.40;;;;;;4965441;28;20122;-62
2023/08/15 07:13:58;;;;;;;13.38;4.13;;;20.20;1.00;;;;;;4965867;28;20068;-62
2023/08/15 07:16:24;;;;;;;8.93;3.17;;;19.70;1.00;;;;;;4957344;28;20101;-62
2023/08/15 07:18:50;;;;;;;8.93;3.70;;;;;;;;;;4980489;28;20050;-62
2023/08/15 07:21:16;;;;;;;9.40;3.15;;;;;;;;;;4961069;28;20050;-62
2023/08/15 07:23:42;;;;;;;6.63;2.80;;;20.20;1.00;;;;;;4965094;28;20583;-62
2023/08/15 07:26:07;;;;;;;9.15;4.15;;;20.10;99.90;;;;;;4960792;28;20043;-61
2023/08/15 07:28:33;;;;;;;9.57;3.03;;;20.10;99.90;;;;;;4958696;28;20035;-62
2023/08/15 07:30:59;;;;;;;9.77;2.50;;;20.00;99.90;;;;;;4962074;28;20058;-61
2023/08/15 07:33:25;;;;;;;6.18;2.40;;;20.00;99.90;;;;;;4961700;28;20046;-61
2023/08/15 07:35:51;;;;;;;7.15;2.13;;;;;;;;;;4963794;28;20123;-62
2023/08/15 07:38:16;;;;;;;7.38;2.28;;;19.90;32.90;;;;;;4965416;28;20070;-62
2023/08/15 07:40:42;;;;;;;8.82;2.45;;;19.80;45.50;;;;;;4962567;28;20082;-61
2023/08/15 07:43:08;;;;;;;7.13;2.17;;;20.00;1.00;;;;;;4968354;28;20119;-62
2023/08/15 07:45:33;;;;;;;8.02;2.72;;;19.90;1.00;;;;;;4966029;28;20106;-62
2023/08/15 07:47:59;;;;;;;7.38;2.47;;;20.00;1.00;;;;;;4957353;28;20450;-62
2023/08/15 07:50:27;;;;;;;14.15;3.30;;;;;;;;;;4963468;28;20440;-61
2023/08/15 07:52:54;;;;;;;8.23;2.58;;;;;;;;;;4965241;28;20067;-61
2023/08/15 07:55:20;;;;;;;10.02;2.83;;;;;;;;;;4961510;28;20035;-62
2023/08/15 07:57:46;;;;;;;9.18;3.90;;;20.20;14.70;;;;;;4966520;28;20035;-61
2023/08/15 08:00:13;;;;;;;12.10;3.40;;;20.10;25.10;;;;;;4961950;28;20039;-62
2023/08/15 08:02:40;;;;;;;10.25;2.28;;;20.30;18.80;;;;;;4961380;28;20070;-62
2023/08/15 08:05:07;;;;;;;7.07;2.10;;;;;;;;;;4962567;28;20116;-62
2023/08/15 08:07:37;;;;;;;10.40;2.72;;;;;;;;;;4960755;28;20054;-62
2023/08/15 08:10:04;;;;;;;9.65;3.03;;;20.00;1.00;;;;;;4963236;28;20105;-61
2023/08/15 08:12:30;;;;;;;8.82;2.97;;;20.30;1.00;;;;;;4960068;28;20078;-62
2023/08/15 08:14:56;;;;;;;6.88;2.10;;;20.20;1.00;;;;;;4963297;28;20074;-62
2023/08/15 08:17:22;;;;;;;7.97;2.20;;;20.20;1.00;;;;;;4966787;28;20560;-62
2023/08/15 08:19:48;;;;;;;9.55;3.05;;;20.40;1.00;;;;;;4959208;28;20134;-61
2023/08/15 08:22:14;;;;;;;6.97;2.00;;;;;;;;;;4964077;28;20118;-61
2023/08/15 08:24:40;;;;;;;6.13;2.10;;;;;;;;;;4965444;28;20358;-62
2023/08/15 08:27:06;;;;;;;7.93;2.20;;;;;;;;;;4966275;28;20042;-61
2023/08/15 08:29:32;;;;;;;7.22;2.00;;;20.30;99.90;;;;;;4963627;28;20220;-61
2023/08/15 08:31:57;;;;;;;6.93;2.00;;;20.40;99.90;;;;;;4961881;28;20043;-61
2023/08/15 08:34:23;;;;;;;6.97;2.15;;;20.80;99.90;;;;;;4963499;28;20441;-62
2023/08/15 08:36:49;;;;;;;5.75;2.22;;;20.40;99.90;;;;;;4962080;28;20043;-61
2023/08/15 08:39:15;;;;;;;10.63;2.42;;;;;;;;;;4956563;28;20042;-61
2023/08/15 08:41:41;;;;;;;8.13;2.10;;;;;;;;;;4976877;28;20047;-61
2023/08/15 08:44:09;;;;;;;6.57;2.15;;;20.40;99.90;;;;;;4965065;28;20158;-61
2023/08/15 08:46:36;;;;;;;5.85;1.83;;;20.60;99.90;;;;;;4965146;28;20034;-61
2023/08/15 08:49:04;;;;;;;6.80;2.08;;;20.60;99.90;;;;;;4964935;28;20035;-61
2023/08/15 08:51:32;;;;;;;7.25;2.35;;;;;;;;;;4965148;28;20121;-61
2023/08/15 08:53:58;;;;;;;6.88;2.10;;;20.70;99.90;;;;;;4968309;28;20046;-61
2023/08/15 08:56:29;;;;;;;9.52;2.05;;;20.80;99.90;;;;;;4966209;28;20106;-61
2023/08/15 08:59:15;;;;;;;6.75;2.20;;;;;;;;;;4967914;28;20050;-61
2023/08/15 09:01:42;;;;;;;9.98;2.47;;;20.90;99.90;;;;;;4962181;28;20035;-61
2023/08/15 09:04:08;;;;;;;5.88;2.00;;;20.80;99.90;;;;;;4964959;28;20072;-62
2023/08/15 09:06:34;;;;;;;5.25;1.90;;;;;;;;;;4964394;28;20662;-62
2023/08/15 09:09:00;;;;;;;9.43;2.53;;;;;;;;;;4959797;28;20042;-61
2023/08/15 09:11:34;;;;;;;7.55;2.60;;;21.00;99.90;;;;;;4960781;28;20484;-62
2023/08/15 09:14:03;;;;;;;6.00;1.80;;;20.90;99.90;;;;;;4961258;28;20057;-61
2023/08/15 09:16:29;;;;;;;8.35;2.38;;;21.00;99.90;;;;;;4962564;28;20293;-61
2023/08/15 09:18:55;;;;;;;9.15;2.38;;;20.90;99.90;;;;;;4965360;28;20049;-61
2023/08/15 09:21:23;;;;;;;7.45;2.30;;;21.00;99.90;;;;;;4963085;28;20126;-61
2023/08/15 09:23:51;;;;;;;6.20;1.90;;;20.70;99.90;;;;;;4959994;28;20075;-61
2023/08/15 09:26:17;;;;;;;6.90;2.03;;;21.40;99.90;;;;;;4964951;28;20477;-61
2023/08/15 09:28:44;;;;;;;7.03;2.20;;;20.90;99.90;;;;;;4959515;28;20043;-61
2023/08/15 09:31:10;;;;;;;5.88;2.10;;;21.10;99.90;;;;;;4958184;28;20594;-61
2023/08/15 09:33:40;;;;;;;6.63;2.30;;;21.20;99.90;;;;;;4961509;28;20038;-61
2023/08/15 09:36:10;;;;;;;7.85;2.65;;;;;;;;;;4963313;28;20484;-61
2023/08/15 09:38:36;;;;;;;7.30;2.28;;;21.20;99.90;;;;;;4965478;28;20102;-61
2023/08/15 09:41:03;;;;;;;7.75;2.85;;;21.40;99.90;;;;;;4965758;28;20035;-61
2023/08/15 09:43:30;;;;;;;5.85;1.90;;;21.20;99.90;;;;;;4953893;28;20034;-62
2023/08/15 09:45:58;;;;;;;6.78;2.22;;;20.60;99.40;;;;;;4961550;28;20063;-61
2023/08/15 09:48:25;;;;;;;9.32;2.13;;;;;;;;;;4964253;28;20077;-61
2023/08/15 09:50:51;;;;;;;7.85;2.10;;;21.20;91.00;;;;;;4965083;28;20958;-61
2023/08/15 09:53:19;;;;;;;7.38;2.22;;;21.20;76.90;;;;;;4961624;28;20053;-61
2023/08/15 09:55:45;;;;;;;5.82;1.83;;;21.10;78.20;;;;;;4955370;28;20042;-61
2023/08/15 09:58:11;;;;;;;6.47;2.10;;;21.20;78.50;;;;;;4963390;28;20065;-61
2023/08/15 10:00:38;;;;;;;8.68;2.08;;;21.00;73.90;;;;;;4963094;28;20500;-61
2023/08/15 10:03:23;;;;;;;7.05;2.20;;;22.00;40.20;;;;;;4964428;28;20038;-61
2023/08/15 10:05:54;;;;;;;8.20;1.98;;;;;;;;;;4962108;28;20205;-61
2023/08/15 10:08:20;;;;;;;7.03;2.50;;;22.40;10.70;;;;;;4974591;28;20074;-61
2023/08/15 10:10:50;;;;;;;7.90;2.22;;;;;;;;;;4960695;28;20047;-61
2023/08/15 10:13:21;;;;;;;5.78;2.22;;;21.40;5.80;;;;;;4965010;28;20039;-61
2023/08/15 10:15:47;;;;;;;6.10;2.10;;;22.50;1.00;;;;;;4964533;28;20459;-61
2023/08/15 10:18:13;;;;;;;6.00;1.95;;;22.70;1.00;;;;;;4986486;28;20125;-61
2023/08/15 10:20:39;;;;;;;6.38;3.05;;;22.70;1.00;;;;;;4963910;28;20117;-61
2023/08/15 10:23:09;;;;;;;10.05;2.85;;;22.80;1.00;;;;;;4965241;28;20034;-61
2023/08/15 10:25:38;;;;;;;9.38;2.58;;;21.70;1.00;;;;;;4963004;28;20035;-61
2023/08/15 10:28:07;;;;;;;8.40;2.50;;;22.00;1.00;;;;;;4961346;28;20042;-61
2023/08/15 10:30:36;;;;;;;6.45;2.13;;;;;;;;;;4961506;28;20134;-61
2023/08/15 10:33:18;;;;;;;7.82;2.55;;;22.30;1.00;;;;;;4963509;28;20114;-61
2023/08/15 10:35:49;;;;;;;7.18;2.17;;;22.70;1.00;;;;;;4966130;28;20069;-61
2023/08/15 10:38:16;;;;;;;8.32;2.50;;;21.60;1.00;;;;;;4966649;28;20061;-61
2023/08/15 10:40:44;;;;;;;7.57;2.20;;;22.40;1.00;;;;;;4974458;28;20039;-61
2023/08/15 10:43:11;;;;;;;5.65;3.40;;;;;;;;;;4960135;28;20032;-61
2023/08/15 10:45:37;;;;;;;6.25;2.08;;;22.80;1.00;;;;;;4955884;28;20401;-61
2023/08/15 10:48:03;;;;;;;6.43;1.95;;;22.80;1.00;;;;;;4961081;28;20046;-61
2023/08/15 10:50:29;;;;;;;5.72;1.67;;;22.50;1.00;;;;;;4963328;28;20037;-61
2023/08/15 10:53:03;;;;;;;6.95;2.65;;;22.70;99.90;;;;;;4958192;28;20505;-61
2023/08/15 10:55:31;;;;;;;8.30;1.90;;;21.80;99.90;;;;;;4962695;28;20030;-61
2023/08/15 10:57:56;;;;;;;5.85;2.50;;;22.60;99.90;;;;;;4966799;28;20073;-61
2023/08/15 11:00:23;;;;;;;7.97;2.80;;;22.90;99.90;;;;;;4961473;28;20058;-61
2023/08/15 11:02:50;;;;;;;9.32;2.40;;;22.20;99.90;;;;;;4963384;28;20054;-61
2023/08/15 11:05:38;;;;;;;7.53;2.42;;;22.80;99.90;;;;;;4963166;28;20077;-61
2023/08/15 11:08:29;;;;;;;7.78;2.17;;;21.80;99.90;;;;;;4965788;28;20113;-61
2023/08/15 11:10:55;;;;;;;6.60;2.00;;;22.90;99.90;;;;;;4957714;28;20054;-61
2023/08/15 11:13:20;;;;;;;6.80;2.30;;;22.90;99.90;;;;;;4960497;28;20034;-61
2023/08/15 11:15:46;;;;;;;4.55;1.30;;;21.70;99.90;;;;;;4959492;28;20035;-61
2023/08/15 11:18:22;;;;;;;4.60;1.52;;;22.60;99.90;;;;;;4956768;28;20178;-61
2023/08/15 11:20:48;;;;;;;7.18;1.92;;;22.40;99.90;;;;;;4956529;28;20114;-61
2023/08/15 11:23:15;;;;;;;6.30;2.05;;;22.30;99.90;;;;;;4957506;28;20509;-62
2023/08/15 11:25:40;;;;;;;5.75;2.05;;;22.40;99.90;;;;;;4962780;28;20039;-61
2023/08/15 11:28:06;;;;;;;4.70;1.70;;;22.90;99.90;;;;;;4964156;28;20065;-61
2023/08/15 11:30:33;;;;;;;3.75;1.42;;;22.70;99.90;;;;;;4962054;28;20042;-62
2023/08/15 11:32:59;;;;;;;7.40;1.85;;;23.10;99.90;;;;;;4964663;28;20054;-62
2023/08/15 11:35:24;;;;;;;6.47;1.92;;;23.50;99.90;;;;;;4961498;28;20401;-61
2023/08/15 11:37:50;;;;;;;7.63;2.08;;;23.00;99.90;;;;;;4965086;28;20051;-61
2023/08/15 11:40:16;;;;;;;5.35;1.73;;;23.30;99.90;;;;;;4965509;28;20042;-62
2023/08/15 11:42:43;;;;;;;8.32;2.40;;;23.10;99.90;;;;;;4959047;28;20047;-61
2023/08/15 11:45:09;;;;;;;8.82;2.00;;;23.20;99.90;;;;;;4963924;28;20039;-62
2023/08/15 11:47:35;;;;;;;5.40;2.08;;;22.80;99.90;;;;;;4956543;28;20046;-62
2023/08/15 11:50:10;;;;;;;6.60;1.70;;;22.90;99.90;;;;;;4963582;28;20054;-62
2023/08/15 11:52:43;;;;;;;6.40;2.20;;;22.90;99.90;;;;;;4960195;28;20155;-61
2023/08/15 11:55:10;;;;;;;5.82;1.98;;;23.20;99.90;;;;;;4965776;28;20054;-62
2023/08/15 11:57:35;;;;;;;4.70;1.60;;;22.80;99.90;;;;;;4961817;28;20114;-62
2023/08/15 12:00:02;;;;;;;6.00;1.60;;;22.80;99.90;;;;;;4962284;28;20122;-62
2023/08/15 12:02:28;;;;;;;5.03;1.67;;;23.10;99.90;;;;;;4959014;28;20043;-62
2023/08/15 12:04:53;;;;;;;5.03;1.67;;;22.90;99.90;;;;;;4954241;28;20070;-62
2023/08/15 12:07:19;;;;;;;8.32;2.33;;;23.20;99.90;;;;;;4967680;28;20208;-62
2023/08/15 12:09:46;;;;;;;5.47;1.80;;;23.30;99.90;;;;;;4960523;28;20047;-62
2023/08/15 12:12:19;;;;;;;6.82;2.10;;;23.50;99.90;;;;;;4970060;28;20047;-62
2023/08/15 12:14:45;;;;;;;5.80;2.40;;;23.80;99.90;;;;;;4960517;28;20047;-62
2023/08/15 12:17:10;;;;;;;6.18;2.20;;;23.40;99.90;;;;;;4958160;28;20158;-62
2023/08/15 12:19:36;;;;;;;5.50;2.15;;;23.60;99.90;;;;;;4964830;28;20535;-61
2023/08/15 12:22:03;;;;;;;5.93;2.13;;;23.80;99.90;;;;;;4961648;28;20050;-61
2023/08/15 12:24:28;;;;;;;9.95;2.95;;;23.70;99.90;;;;;;4965016;28;20035;-62
2023/08/15 12:26:54;;;;;;;6.50;2.15;;;23.60;99.90;;;;;;4965160;28;20046;-62
2023/08/15 12:29:20;;;;;;;7.03;2.20;;;24.00;99.90;;;;;;4969217;28;20117;-63
2023/08/15 12:31:45;;;;;;;7.55;2.38;;;23.70;99.90;;;;;;4966903;28;20125;-62
2023/08/15 12:34:11;;;;;;;5.88;2.10;;;24.30;99.90;;;;;;4962487;28;20428;-62
2023/08/15 12:36:37;;;;;;;7.28;1.92;;;25.60;99.90;;;;;;4971074;28;20441;-62
2023/08/15 12:39:03;;;;;;;6.13;2.58;;;27.00;99.90;;;;;;4964573;28;20125;-62
2023/08/15 12:41:28;;;;;;;6.13;2.45;;;27.90;99.90;;;;;;4960216;28;20047;-62
2023/08/15 12:43:54;;;;;;;6.30;2.42;;;30.30;99.90;;;;;;4960407;28;20045;-61
2023/08/15 12:46:22;;;;;;;5.30;1.92;;;28.90;99.90;;;;;;4962985;28;20039;-62
2023/08/15 12:48:48;;;;;;;6.20;1.73;;;27.80;99.90;;;;;;4958234;28;20457;-62
2023/08/15 12:51:14;;;;;;;5.60;1.83;;;28.80;99.90;;;;;;4963286;28;20043;-62
2023/08/15 12:53:40;;;;;;;4.80;1.83;;;30.60;74.20;;;;;;4965050;28;20043;-62